createdAt,value
2024-02-11T00:09:03.815Z,969.96
2024-02-11T00:19:06.893Z,969.78
2024-02-11T00:29:09.540Z,969.72
2024-02-11T00:39:12.489Z,969.64
2024-02-11T00:49:14.897Z,969.7
2024-02-11T00:59:17.426Z,969.68
2024-02-11T01:09:28.829Z,969.7
2024-02-11T01:19:31.577Z,969.68
2024-02-11T01:29:34.108Z,969.67
2024-02-11T01:39:36.770Z,969.75
2024-02-11T01:49:38.826Z,969.87
2024-02-11T01:59:41.805Z,969.67
2024-02-11T02:09:44.686Z,969.64
2024-02-11T02:19:47.782Z,969.58
2024-02-11T02:29:50.319Z,969.55
2024-02-11T02:39:52.738Z,969.53
2024-02-11T02:49:54.926Z,969.43
2024-02-11T02:59:57.957Z,969.36
2024-02-11T03:10:01.055Z,969.24
2024-02-11T03:20:03.459Z,969.15
2024-02-11T03:30:06.080Z,969.19
2024-02-11T03:40:08.310Z,969.17
2024-02-11T03:50:10.911Z,969.33
2024-02-11T04:00:14.235Z,969.41
2024-02-11T04:10:16.543Z,969.42
2024-02-11T04:20:18.983Z,969.43
2024-02-11T04:30:21.877Z,969.4
2024-02-11T04:40:24.006Z,969.33
2024-02-11T04:50:26.688Z,969.21
2024-02-11T05:00:29.770Z,969.22
2024-02-11T05:10:32.187Z,969.34
2024-02-11T05:20:34.854Z,969.49
2024-02-11T05:30:37.793Z,969.63
2024-02-11T05:40:40.370Z,969.76
2024-02-11T05:50:43.572Z,969.9
2024-02-11T06:00:46.046Z,969.92
2024-02-11T06:10:49.057Z,969.9
2024-02-11T06:20:52.132Z,969.9
2024-02-11T06:30:54.473Z,970.03
2024-02-11T06:40:57.524Z,970.11
2024-02-11T06:51:00.139Z,970.19
2024-02-11T07:01:03.024Z,970.2
2024-02-11T07:11:06.068Z,970.26
2024-02-11T07:21:09.024Z,970.29
2024-02-11T07:31:11.020Z,970.47
2024-02-11T07:41:14.243Z,970.57
2024-02-11T07:51:17.067Z,970.66
2024-02-11T08:01:20.340Z,970.66
2024-02-11T08:11:23.537Z,970.74
2024-02-11T08:21:26.850Z,970.98
2024-02-11T08:31:30.927Z,971.08
2024-02-11T08:41:33.431Z,971.02
2024-02-11T08:51:35.552Z,970.99
2024-02-11T09:01:38.800Z,970.93
2024-02-11T09:11:42.039Z,970.93
2024-02-11T09:21:44.689Z,971.07
2024-02-11T09:31:47.009Z,971.08
2024-02-11T09:41:49.754Z,971.32
2024-02-11T09:51:52.268Z,971.41
2024-02-11T10:01:54.863Z,971.51
2024-02-11T10:11:57.430Z,971.5
2024-02-11T10:22:28.900Z,971.56
2024-02-11T10:32:33.092Z,971.6
2024-02-11T10:42:36.891Z,971.58
2024-02-11T10:52:40.125Z,971.6
2024-02-11T11:02:42.693Z,971.55
2024-02-11T11:12:44.932Z,971.53
2024-02-11T11:22:48.068Z,971.57
2024-02-11T11:32:51.056Z,971.44
2024-02-11T11:42:53.667Z,971.51
2024-02-11T11:52:55.523Z,971.53
2024-02-11T12:03:02.593Z,971.51
2024-02-11T12:13:04.915Z,971.51
2024-02-11T12:23:07.579Z,971.54
2024-02-11T12:33:10.199Z,971.51
2024-02-11T12:43:12.949Z,971.55
2024-02-11T12:53:15.211Z,971.56
2024-02-11T13:03:18.393Z,971.64
2024-02-11T13:13:20.607Z,971.68
2024-02-11T13:23:23.493Z,971.63
2024-02-11T13:33:27.790Z,971.69
2024-02-11T13:43:31.308Z,971.75
2024-02-11T13:53:33.647Z,971.75
2024-02-11T14:03:36.594Z,971.79
2024-02-11T14:13:39.149Z,971.84
2024-02-11T14:23:41.566Z,971.96
2024-02-11T14:33:44.432Z,971.99
2024-02-11T14:43:47.293Z,971.98
2024-02-11T14:53:49.896Z,972.08
2024-02-11T15:03:52.741Z,972.18
2024-02-11T15:13:55.734Z,972.3
2024-02-11T15:23:58.008Z,972.38
2024-02-11T15:34:00.408Z,972.46
2024-02-11T15:44:04.292Z,972.55
2024-02-11T15:54:06.878Z,972.66
2024-02-11T16:04:09.738Z,972.8
2024-02-11T16:14:12.453Z,972.92
2024-02-11T16:24:15.738Z,973.08
2024-02-11T16:34:18.191Z,973.18
2024-02-11T16:44:20.940Z,973.33
2024-02-11T16:54:24.057Z,973.43
2024-02-11T17:04:26.654Z,973.52
2024-02-11T17:14:29.572Z,973.68
2024-02-11T17:24:32.358Z,973.81
2024-02-11T17:34:35.666Z,973.97
2024-02-11T17:44:38.613Z,974.12
2024-02-11T17:54:42.523Z,974.25
2024-02-11T18:04:45.727Z,974.26
2024-02-11T18:14:48.558Z,974.37
2024-02-11T18:24:51.307Z,974.36
2024-02-11T18:34:53.482Z,974.45
2024-02-11T18:44:56.337Z,974.53
2024-02-11T18:54:58.922Z,974.6
2024-02-11T19:05:02.620Z,974.65
2024-02-11T19:15:05.617Z,974.66
2024-02-11T19:25:08.158Z,974.71
2024-02-11T19:35:10.931Z,974.82
2024-02-11T19:45:13.532Z,974.84
2024-02-11T19:55:15.942Z,974.88
2024-02-11T20:05:19.018Z,974.98
2024-02-11T20:15:22.026Z,975.08
2024-02-11T20:25:24.085Z,975.14
2024-02-11T20:35:26.867Z,975.29
2024-02-11T20:45:30.147Z,975.37
2024-02-11T20:55:32.446Z,975.39
2024-02-11T21:05:35.600Z,975.42
2024-02-11T21:15:38.634Z,975.46
2024-02-11T21:25:40.937Z,975.53
2024-02-11T21:35:43.207Z,975.6
2024-02-11T21:45:46.158Z,975.63
2024-02-11T21:55:48.550Z,975.69
2024-02-11T22:05:51.289Z,975.75
2024-02-11T22:15:54.405Z,975.86
2024-02-11T22:25:56.957Z,975.91
2024-02-11T22:35:59.645Z,975.98
2024-02-11T22:46:02.708Z,976
2024-02-11T22:56:05.364Z,976.09
2024-02-11T23:06:08.977Z,976.14
2024-02-11T23:16:12.140Z,976.22
2024-02-11T23:26:14.815Z,976.31
2024-02-11T23:36:18.722Z,976.34
2024-02-11T23:46:21.077Z,976.39
2024-02-11T23:56:25.403Z,976.43
